createdAt,value
2023-02-19T00:01:14.443Z,11.18
2023-02-19T00:02:47.748Z,11.23
2023-02-19T00:04:22.001Z,11.27
2023-02-19T00:05:53.976Z,11.30
2023-02-19T00:07:26.071Z,11.37
2023-02-19T00:08:58.137Z,11.41
2023-02-19T00:10:30.107Z,11.43
2023-02-19T00:12:02.055Z,11.47
2023-02-19T00:13:41.235Z,11.50
2023-02-19T00:15:13.162Z,11.53
2023-02-19T00:16:45.393Z,11.58
2023-02-19T00:18:17.320Z,11.63
2023-02-19T00:19:49.399Z,11.67
2023-02-19T00:21:21.414Z,11.68
2023-02-19T00:22:53.390Z,11.73
2023-02-19T00:24:25.326Z,11.74
2023-02-19T00:26:03.188Z,11.76
2023-02-19T00:27:41.652Z,11.78
2023-02-19T00:29:15.140Z,11.82
2023-02-19T00:30:47.193Z,11.81
2023-02-19T00:32:19.463Z,11.82
2023-02-19T00:33:53.237Z,11.82
2023-02-19T00:35:25.300Z,11.84
2023-02-19T00:36:57.218Z,11.86
2023-02-19T00:38:29.236Z,11.88
2023-02-19T00:40:02.020Z,11.90
2023-02-19T00:41:35.470Z,11.91
2023-02-19T00:43:07.615Z,11.93
2023-02-19T00:44:39.541Z,11.94
2023-02-19T00:46:11.557Z,11.95
2023-02-19T00:47:43.642Z,11.95
2023-02-19T00:49:17.940Z,11.93
2023-02-19T00:50:49.970Z,11.91
2023-02-19T00:52:22.212Z,11.92
2023-02-19T00:53:54.524Z,11.91
2023-02-19T00:55:26.512Z,11.91
2023-02-19T00:56:58.436Z,11.91
2023-02-19T00:58:30.440Z,11.90
2023-02-19T01:00:02.549Z,11.90
2023-02-19T01:01:35.860Z,11.89
2023-02-19T01:03:07.988Z,11.88
2023-02-19T01:04:39.949Z,11.88
2023-02-19T01:06:14.075Z,11.91
2023-02-19T01:07:46.119Z,11.92
2023-02-19T01:09:18.151Z,11.92
2023-02-19T01:10:50.215Z,11.90
2023-02-19T01:12:24.312Z,11.96
2023-02-19T01:14:00.174Z,11.93
2023-02-19T01:15:35.494Z,11.93
2023-02-19T01:17:07.988Z,11.92
2023-02-19T01:18:40.858Z,11.91
2023-02-19T01:20:12.905Z,11.91
2023-02-19T01:21:44.950Z,11.88
2023-02-19T01:23:16.876Z,11.88
2023-02-19T01:24:48.928Z,11.91
2023-02-19T01:26:22.626Z,11.93
2023-02-19T01:27:54.637Z,11.92
2023-02-19T01:29:26.715Z,11.94
2023-02-19T01:31:03.058Z,11.94
2023-02-19T01:32:35.072Z,11.94
2023-02-19T01:34:07.204Z,11.96
2023-02-19T01:35:39.619Z,11.96
2023-02-19T01:37:12.241Z,11.94
2023-02-19T01:38:45.508Z,11.92
2023-02-19T01:40:17.965Z,11.92
2023-02-19T01:41:49.922Z,11.95
2023-02-19T01:43:21.899Z,11.94
2023-02-19T01:45:12.344Z,11.91
2023-02-19T01:46:46.361Z,11.91
2023-02-19T01:48:27.531Z,11.88
2023-02-19T01:49:59.576Z,11.86
2023-02-19T01:51:32.757Z,11.85
2023-02-19T01:53:07.041Z,11.81
2023-02-19T01:54:40.298Z,11.80
2023-02-19T01:56:13.448Z,11.80
2023-02-19T01:57:46.986Z,11.77
2023-02-19T01:59:21.784Z,11.73
2023-02-19T02:00:53.765Z,11.69
2023-02-19T02:02:27.433Z,11.62
2023-02-19T02:03:59.955Z,11.55
2023-02-19T02:05:42.425Z,11.50
2023-02-19T02:07:33.075Z,11.44
2023-02-19T02:09:23.827Z,11.31
2023-02-19T02:10:56.136Z,11.17
2023-02-19T02:12:28.286Z,11.07
2023-02-19T02:14:00.474Z,10.94
2023-02-19T02:15:42.139Z,10.84
2023-02-19T02:17:20.217Z,10.71
2023-02-19T02:19:05.339Z,10.60
2023-02-19T02:20:37.358Z,10.50
2023-02-19T02:22:09.364Z,10.42
2023-02-19T02:23:59.963Z,10.34
2023-02-19T02:25:55.031Z,10.32
2023-02-19T02:27:38.283Z,10.30
2023-02-19T02:29:30.647Z,10.26
2023-02-19T02:31:26.492Z,10.21
2023-02-19T02:33:09.697Z,10.13
2023-02-19T02:34:53.044Z,10.09
2023-02-19T02:36:30.931Z,10.01
2023-02-19T02:38:05.069Z,9.94
2023-02-19T02:39:38.767Z,9.86
2023-02-19T02:41:12.165Z,9.75
2023-02-19T02:42:44.588Z,9.64
2023-02-19T02:44:17.965Z,9.53
2023-02-19T02:45:51.313Z,9.45
2023-02-19T02:47:50.617Z,9.34
2023-02-19T02:49:23.666Z,9.27
2023-02-19T02:50:56.934Z,9.21
2023-02-19T02:52:47.498Z,9.17
2023-02-19T02:54:42.725Z,9.15
2023-02-19T02:56:18.589Z,9.19
2023-02-19T02:57:50.867Z,9.22
2023-02-19T02:59:25.229Z,9.27
2023-02-19T03:01:21.767Z,9.33
2023-02-19T03:02:54.037Z,9.38
2023-02-19T03:05:00.780Z,9.41
2023-02-19T03:06:34.366Z,9.47
2023-02-19T03:08:18.382Z,9.53
2023-02-19T03:09:50.645Z,9.50
2023-02-19T03:11:41.152Z,9.48
2023-02-19T03:13:43.438Z,9.44
2023-02-19T03:15:35.520Z,9.37
2023-02-19T03:17:46.489Z,9.30
2023-02-19T03:19:19.913Z,9.20
2023-02-19T03:20:55.540Z,9.14
2023-02-19T03:22:31.650Z,9.09
2023-02-19T03:24:24.266Z,9.02
2023-02-19T03:26:05.206Z,8.98
2023-02-19T03:27:47.784Z,8.95
2023-02-19T03:29:26.111Z,8.95
2023-02-19T03:31:05.042Z,8.92
2023-02-19T03:32:42.615Z,8.92
2023-02-19T03:34:16.977Z,8.94
2023-02-19T03:36:00.823Z,8.93
2023-02-19T03:37:37.605Z,8.94
2023-02-19T03:39:11.327Z,8.96
2023-02-19T03:41:04.019Z,9.01
2023-02-19T03:42:55.082Z,9.11
2023-02-19T03:44:46.799Z,9.21
2023-02-19T03:46:25.977Z,9.35
2023-02-19T03:47:58.244Z,9.45
2023-02-19T03:49:35.264Z,9.54
2023-02-19T03:51:26.022Z,9.63
2023-02-19T03:53:07.354Z,9.74
2023-02-19T03:54:47.276Z,9.79
2023-02-19T03:56:28.819Z,9.82
2023-02-19T03:58:00.738Z,9.83
2023-02-19T03:59:32.760Z,9.81
2023-02-19T04:01:07.217Z,9.79
2023-02-19T04:02:59.403Z,9.74
2023-02-19T04:04:36.351Z,9.70
2023-02-19T04:06:18.226Z,9.68
2023-02-19T04:07:52.402Z,9.67
2023-02-19T04:09:31.065Z,9.69
2023-02-19T04:11:09.155Z,9.69
2023-02-19T04:12:44.943Z,9.70
2023-02-19T04:14:20.141Z,9.72
2023-02-19T04:15:54.546Z,9.76
2023-02-19T04:17:42.737Z,9.80
2023-02-19T04:19:17.470Z,9.84
2023-02-19T04:20:50.510Z,9.87
2023-02-19T04:22:22.759Z,9.92
2023-02-19T04:23:55.347Z,9.96
2023-02-19T04:25:27.873Z,9.99
2023-02-19T04:26:59.938Z,10.03
2023-02-19T04:28:31.955Z,10.09
2023-02-19T04:30:04.724Z,10.08
2023-02-19T04:31:37.814Z,10.10
2023-02-19T04:33:09.767Z,10.11
2023-02-19T04:34:41.854Z,10.12
2023-02-19T04:36:13.864Z,10.15
2023-02-19T04:37:45.900Z,10.17
2023-02-19T04:39:17.796Z,10.19
2023-02-19T04:40:51.504Z,10.22
2023-02-19T04:42:23.419Z,10.25
2023-02-19T04:43:55.537Z,10.29
2023-02-19T04:45:27.677Z,10.32
2023-02-19T04:46:59.637Z,10.35
2023-02-19T04:48:31.666Z,10.39
2023-02-19T04:50:04.016Z,10.40
2023-02-19T04:51:35.968Z,10.44
2023-02-19T04:53:07.964Z,10.47
2023-02-19T04:54:40.036Z,10.50
2023-02-19T04:56:13.340Z,10.54
2023-02-19T04:57:45.288Z,10.55
2023-02-19T04:59:17.355Z,10.58
2023-02-19T05:00:53.194Z,10.61
2023-02-19T05:02:25.346Z,10.62
2023-02-19T05:03:57.387Z,10.66
2023-02-19T05:05:30.435Z,10.69
2023-02-19T05:07:02.335Z,10.70
2023-02-19T05:08:34.641Z,10.71
2023-02-19T05:10:06.666Z,10.70
2023-02-19T05:11:38.717Z,10.72
2023-02-19T05:13:10.744Z,10.74
2023-02-19T05:14:42.730Z,10.74
2023-02-19T05:16:16.278Z,10.74
2023-02-19T05:17:48.397Z,10.75
2023-02-19T05:19:20.377Z,10.77
2023-02-19T05:20:52.722Z,10.79
2023-02-19T05:22:24.744Z,10.80
2023-02-19T05:23:56.759Z,10.81
2023-02-19T05:25:28.754Z,10.83
2023-02-19T05:27:00.776Z,10.85
2023-02-19T05:28:32.755Z,10.86
2023-02-19T05:30:04.822Z,10.88
2023-02-19T05:31:36.866Z,10.89
2023-02-19T05:33:09.113Z,10.88
2023-02-19T05:34:41.022Z,10.87
2023-02-19T05:36:13.986Z,10.87
2023-02-19T05:37:45.958Z,10.87
2023-02-19T05:39:17.894Z,10.89
2023-02-19T05:40:49.977Z,10.88
2023-02-19T05:42:22.076Z,10.89
2023-02-19T05:43:54.609Z,10.90
2023-02-19T05:45:26.748Z,10.90
2023-02-19T05:46:58.655Z,10.91
2023-02-19T05:48:30.735Z,10.90
2023-02-19T05:50:02.797Z,10.90
2023-02-19T05:51:34.832Z,10.89
2023-02-19T05:53:06.774Z,10.89
2023-02-19T05:54:38.739Z,10.87
2023-02-19T05:56:29.605Z,10.84
2023-02-19T05:58:01.629Z,10.81
2023-02-19T05:59:33.585Z,10.78
2023-02-19T06:01:05.595Z,10.78
2023-02-19T06:02:37.792Z,10.72
2023-02-19T06:04:14.053Z,10.69
2023-02-19T06:05:46.012Z,10.66
2023-02-19T06:07:17.965Z,10.64
2023-02-19T06:08:50.465Z,10.62
2023-02-19T06:10:22.506Z,10.60
2023-02-19T06:11:54.645Z,10.58
2023-02-19T06:13:26.629Z,10.57
2023-02-19T06:14:58.605Z,10.54
2023-02-19T06:16:32.234Z,10.51
2023-02-19T06:18:04.302Z,10.50
2023-02-19T06:19:36.375Z,10.48
2023-02-19T06:21:09.925Z,10.44
2023-02-19T06:22:42.030Z,10.43
2023-02-19T06:24:13.977Z,10.40
2023-02-19T06:25:46.077Z,10.36
2023-02-19T06:27:17.996Z,10.35
2023-02-19T06:28:50.934Z,10.33
2023-02-19T06:30:22.922Z,10.32
2023-02-19T06:31:55.171Z,10.32
2023-02-19T06:33:27.996Z,10.31
2023-02-19T06:34:59.978Z,10.30
2023-02-19T06:36:32.058Z,10.29
2023-02-19T06:38:04.020Z,10.28
2023-02-19T06:39:36.220Z,10.27
2023-02-19T06:41:09.070Z,10.26
2023-02-19T06:42:41.479Z,10.24
2023-02-19T06:44:13.426Z,10.22
2023-02-19T06:45:45.524Z,10.20
2023-02-19T06:47:17.584Z,10.19
2023-02-19T06:48:49.518Z,10.16
2023-02-19T06:50:21.462Z,10.15
2023-02-19T06:51:53.404Z,10.16
2023-02-19T06:53:25.422Z,10.17
2023-02-19T06:54:57.400Z,10.16
2023-02-19T06:56:30.914Z,10.14
2023-02-19T06:58:02.859Z,10.14
2023-02-19T06:59:34.856Z,10.14
2023-02-19T07:01:06.966Z,10.14
2023-02-19T07:02:38.977Z,10.14
2023-02-19T07:04:11.105Z,10.14
2023-02-19T07:05:43.976Z,10.15
2023-02-19T07:07:16.020Z,10.12
2023-02-19T07:08:48.139Z,10.11
2023-02-19T07:10:20.123Z,10.11
2023-02-19T07:11:52.476Z,10.12
2023-02-19T07:13:25.737Z,10.11
2023-02-19T07:14:57.728Z,10.13
2023-02-19T07:16:30.144Z,10.13
2023-02-19T07:18:02.504Z,10.14
2023-02-19T07:19:34.503Z,10.15
2023-02-19T07:21:08.090Z,10.16
2023-02-19T07:22:40.252Z,10.17
2023-02-19T07:24:12.180Z,10.19
2023-02-19T07:25:54.364Z,10.20
2023-02-19T07:27:44.599Z,10.22
2023-02-19T07:29:16.628Z,10.25
2023-02-19T07:30:48.725Z,10.29
2023-02-19T07:32:20.782Z,10.34
2023-02-19T07:33:52.844Z,10.43
2023-02-19T07:35:24.815Z,10.49
2023-02-19T07:36:56.784Z,10.55
2023-02-19T07:38:29.011Z,10.59
2023-02-19T07:40:01.035Z,10.65
2023-02-19T07:41:33.239Z,10.73
2023-02-19T07:43:05.430Z,10.78
2023-02-19T07:44:37.345Z,10.82
2023-02-19T07:46:10.843Z,10.87
2023-02-19T07:47:43.320Z,10.93
2023-02-19T07:49:15.257Z,11.01
2023-02-19T07:50:53.619Z,11.11
2023-02-19T07:52:25.917Z,11.23
2023-02-19T07:53:57.929Z,11.36
2023-02-19T07:55:31.726Z,11.54
2023-02-19T07:57:03.895Z,11.69
2023-02-19T07:58:35.958Z,11.83
2023-02-19T08:00:08.213Z,11.99
2023-02-19T08:02:02.926Z,12.16
2023-02-19T08:03:35.671Z,12.34
2023-02-19T08:05:07.803Z,12.45
2023-02-19T08:06:39.856Z,12.54
2023-02-19T08:08:13.243Z,12.65
2023-02-19T08:09:45.168Z,12.76
2023-02-19T08:11:35.476Z,12.85
2023-02-19T08:13:19.466Z,12.97
2023-02-19T08:14:51.387Z,13.12
2023-02-19T08:16:40.772Z,13.21
2023-02-19T08:18:15.320Z,13.26
2023-02-19T08:19:47.359Z,13.33
2023-02-19T08:21:20.671Z,13.37
2023-02-19T08:22:52.656Z,13.36
2023-02-19T08:24:24.714Z,13.33
2023-02-19T08:26:00.410Z,13.28
2023-02-19T08:27:32.393Z,13.26
2023-02-19T08:29:05.041Z,13.21
2023-02-19T08:30:38.488Z,13.16
2023-02-19T08:32:10.702Z,13.14
2023-02-19T08:33:42.774Z,13.14
2023-02-19T08:35:14.807Z,13.13
2023-02-19T08:36:46.867Z,13.14
2023-02-19T08:38:18.834Z,13.22
2023-02-19T08:39:50.801Z,13.32
2023-02-19T08:41:23.050Z,13.43
2023-02-19T08:42:55.118Z,13.56
2023-02-19T08:44:27.089Z,13.69
2023-02-19T08:45:59.464Z,13.82
2023-02-19T08:47:31.637Z,13.93
2023-02-19T08:49:03.795Z,14.03
2023-02-19T08:50:36.260Z,14.14
2023-02-19T08:52:08.209Z,14.21
2023-02-19T08:53:40.651Z,14.22
2023-02-19T08:55:12.686Z,14.22
2023-02-19T08:56:44.885Z,14.21
2023-02-19T08:58:17.025Z,14.20
2023-02-19T08:59:49.096Z,14.14
2023-02-19T09:01:21.188Z,14.06
2023-02-19T09:02:53.115Z,14.02
2023-02-19T09:04:25.198Z,14.03
2023-02-19T09:05:57.255Z,14.05
2023-02-19T09:07:29.387Z,14.09
2023-02-19T09:09:01.304Z,14.14
2023-02-19T09:10:33.423Z,14.25
2023-02-19T09:12:06.428Z,14.41
2023-02-19T09:13:38.518Z,14.59
2023-02-19T09:15:10.736Z,14.76
2023-02-19T09:16:42.830Z,14.91
2023-02-19T09:18:14.855Z,15.07
2023-02-19T09:19:46.881Z,15.16
2023-02-19T09:21:18.799Z,15.21
2023-02-19T09:22:51.044Z,15.18
2023-02-19T09:24:23.676Z,15.23
2023-02-19T09:26:03.353Z,15.28
2023-02-19T09:27:35.409Z,15.31
2023-02-19T09:29:07.574Z,15.31
2023-02-19T09:30:39.725Z,15.39
2023-02-19T09:32:12.110Z,15.47
2023-02-19T09:33:44.892Z,15.52
2023-02-19T09:35:17.192Z,15.59
2023-02-19T09:36:49.720Z,15.63
2023-02-19T09:38:21.713Z,15.73
2023-02-19T09:39:54.034Z,15.82
2023-02-19T09:41:26.413Z,15.76
2023-02-19T09:43:00.913Z,15.64
2023-02-19T09:44:39.138Z,15.46
2023-02-19T09:46:16.940Z,15.22
2023-02-19T09:47:49.780Z,14.98
2023-02-19T09:49:28.290Z,14.81
2023-02-19T09:51:01.775Z,14.65
2023-02-19T09:52:40.976Z,14.51
2023-02-19T09:54:17.788Z,14.42
2023-02-19T09:55:50.024Z,14.41
2023-02-19T09:57:22.670Z,14.44
2023-02-19T09:58:56.859Z,14.43
2023-02-19T10:00:33.081Z,14.41
2023-02-19T10:02:11.632Z,14.40
2023-02-19T10:03:44.752Z,14.36
2023-02-19T10:05:17.026Z,14.26
2023-02-19T10:06:49.824Z,14.22
2023-02-19T10:08:22.250Z,14.19
2023-02-19T10:09:58.788Z,14.14
2023-02-19T10:11:30.791Z,14.14
2023-02-19T10:13:15.060Z,14.11
2023-02-19T10:14:48.693Z,14.12
2023-02-19T10:16:24.397Z,14.17
2023-02-19T10:17:56.408Z,14.28
2023-02-19T10:19:28.446Z,14.40
2023-02-19T10:21:00.473Z,14.50
2023-02-19T10:22:33.787Z,14.65
2023-02-19T10:24:06.879Z,14.82
2023-02-19T10:25:41.431Z,14.92
2023-02-19T10:27:14.016Z,15.04
2023-02-19T10:28:46.103Z,15.17
2023-02-19T10:30:23.135Z,15.31
2023-02-19T10:32:14.280Z,15.39
2023-02-19T10:33:50.984Z,15.45
2023-02-19T10:35:23.061Z,15.43
2023-02-19T10:36:55.280Z,15.45
2023-02-19T10:38:29.582Z,15.54
2023-02-19T10:40:01.608Z,15.57
2023-02-19T10:41:34.841Z,15.62
2023-02-19T10:43:06.790Z,15.62
2023-02-19T10:44:42.784Z,15.59
2023-02-19T10:46:20.593Z,15.66
2023-02-19T10:47:53.065Z,15.83
2023-02-19T10:49:40.776Z,15.94
2023-02-19T10:51:20.936Z,16.01
2023-02-19T10:52:56.607Z,16.06
2023-02-19T10:54:30.339Z,15.96
2023-02-19T10:56:30.056Z,15.90
2023-02-19T10:58:20.614Z,15.81
2023-02-19T10:59:54.194Z,15.76
2023-02-19T11:01:27.188Z,15.73
2023-02-19T11:03:19.071Z,15.71
2023-02-19T11:05:03.098Z,15.64
2023-02-19T11:06:35.193Z,15.74
2023-02-19T11:08:21.102Z,15.83
2023-02-19T11:09:53.830Z,15.91
2023-02-19T11:11:27.784Z,16.07
2023-02-19T11:13:01.662Z,16.15
2023-02-19T11:14:34.529Z,16.26
2023-02-19T11:16:06.592Z,16.28
2023-02-19T11:17:38.880Z,16.36
2023-02-19T11:19:23.083Z,16.49
2023-02-19T11:20:56.770Z,16.69
2023-02-19T11:22:33.639Z,16.87
2023-02-19T11:24:05.800Z,17.03
2023-02-19T11:25:44.375Z,17.18
2023-02-19T11:27:18.865Z,17.31
2023-02-19T11:28:57.650Z,17.45
2023-02-19T11:30:36.480Z,17.63
2023-02-19T11:32:21.037Z,17.62
2023-02-19T11:33:56.426Z,17.60
2023-02-19T11:35:28.615Z,17.66
2023-02-19T11:37:13.944Z,17.52
2023-02-19T11:38:45.950Z,17.48
2023-02-19T11:40:18.134Z,17.38
2023-02-19T11:42:08.709Z,17.25
2023-02-19T11:44:01.087Z,17.10
2023-02-19T11:45:33.090Z,16.91
2023-02-19T11:47:05.165Z,16.82
2023-02-19T11:48:55.797Z,16.70
2023-02-19T11:50:33.592Z,16.70
2023-02-19T11:52:16.555Z,16.83
2023-02-19T11:53:51.366Z,17.05
2023-02-19T11:55:32.599Z,17.10
2023-02-19T11:57:07.368Z,17.19
2023-02-19T11:58:42.347Z,17.33
2023-02-19T12:00:14.757Z,17.48
2023-02-19T12:02:05.285Z,17.29
2023-02-19T12:03:54.528Z,17.25
2023-02-19T12:05:26.932Z,17.13
2023-02-19T12:07:17.753Z,17.09
2023-02-19T12:08:58.465Z,17.05
2023-02-19T12:10:38.411Z,16.98
2023-02-19T12:12:29.216Z,16.85
2023-02-19T12:14:07.344Z,16.82
2023-02-19T12:15:45.206Z,16.83
2023-02-19T12:17:35.974Z,16.86
2023-02-19T12:19:10.574Z,16.86
2023-02-19T12:20:42.539Z,16.87
2023-02-19T12:22:28.465Z,16.87
2023-02-19T12:24:06.671Z,16.83
2023-02-19T12:25:45.156Z,16.73
2023-02-19T12:27:36.152Z,16.53
2023-02-19T12:29:20.961Z,16.10
2023-02-19T12:31:05.126Z,15.63
2023-02-19T12:32:37.189Z,15.28
2023-02-19T12:34:15.362Z,15.07
2023-02-19T12:35:52.830Z,14.97
2023-02-19T12:37:35.666Z,14.90
2023-02-19T12:39:24.619Z,14.80
2023-02-19T12:41:13.241Z,14.73
2023-02-19T12:42:45.232Z,14.78
2023-02-19T12:44:23.043Z,14.72
2023-02-19T12:46:07.202Z,14.58
2023-02-19T12:47:40.932Z,14.33
2023-02-19T12:49:15.826Z,14.06
2023-02-19T12:50:49.149Z,13.95
2023-02-19T12:52:26.450Z,13.96
2023-02-19T12:54:04.363Z,14.06
2023-02-19T12:55:39.775Z,14.23
2023-02-19T12:57:13.672Z,14.28
2023-02-19T12:58:50.707Z,14.40
2023-02-19T13:00:25.519Z,14.52
2023-02-19T13:02:23.799Z,14.64
2023-02-19T13:04:18.706Z,14.62
2023-02-19T13:06:10.951Z,14.68
2023-02-19T13:07:46.394Z,14.71
2023-02-19T13:09:21.452Z,14.75
2023-02-19T13:11:19.589Z,14.81
2023-02-19T13:12:52.801Z,14.75
2023-02-19T13:14:33.489Z,14.74
2023-02-19T13:16:18.488Z,14.62
2023-02-19T13:17:52.255Z,14.45
2023-02-19T13:19:24.244Z,14.27
2023-02-19T13:20:56.539Z,13.96
2023-02-19T13:23:02.617Z,13.80
2023-02-19T13:24:36.533Z,13.44
2023-02-19T13:26:08.571Z,13.32
2023-02-19T13:29:36.598Z,13.17
2023-02-19T13:31:21.953Z,13.33
2023-02-19T13:32:54.070Z,13.57
2023-02-19T13:34:44.633Z,13.77
2023-02-19T13:36:21.132Z,13.87
2023-02-19T13:37:54.728Z,13.89
2023-02-19T13:39:28.502Z,13.88
2023-02-19T13:41:03.091Z,13.89
2023-02-19T13:42:36.380Z,13.92
2023-02-19T13:44:16.206Z,13.91
2023-02-19T13:45:53.881Z,13.74
2023-02-19T13:47:44.731Z,13.58
2023-02-19T13:49:23.063Z,13.56
2023-02-19T13:51:13.455Z,13.57
2023-02-19T13:52:45.653Z,13.59
2023-02-19T13:54:28.733Z,13.51
2023-02-19T13:56:00.749Z,13.48
2023-02-19T13:57:32.847Z,13.43
2023-02-19T13:59:11.005Z,13.41
2023-02-19T14:00:51.983Z,13.38
2023-02-19T14:02:28.403Z,13.29
2023-02-19T14:04:18.455Z,13.18
2023-02-19T14:05:57.869Z,12.84
2023-02-19T14:07:32.790Z,12.49
2023-02-19T14:09:24.939Z,12.16
2023-02-19T14:10:58.037Z,11.69
2023-02-19T14:12:34.738Z,11.28
2023-02-19T14:14:25.409Z,11.00
2023-02-19T14:15:57.533Z,10.64
2023-02-19T14:17:35.390Z,10.45
2023-02-19T14:19:25.444Z,10.18
2023-02-19T14:21:06.824Z,9.91
2023-02-19T14:22:47.869Z,9.76
2023-02-19T14:24:20.197Z,9.56
2023-02-19T14:25:54.855Z,9.40
2023-02-19T14:27:27.299Z,9.30
2023-02-19T14:29:00.648Z,9.30
2023-02-19T14:30:34.596Z,9.26
2023-02-19T14:32:06.763Z,9.23
2023-02-19T14:33:40.349Z,9.19
2023-02-19T14:35:22.478Z,9.10
2023-02-19T14:37:01.732Z,9.06
2023-02-19T14:38:36.970Z,9.04
2023-02-19T14:40:17.346Z,8.97
2023-02-19T14:41:59.972Z,8.89
2023-02-19T14:43:33.797Z,8.87
2023-02-19T14:45:07.190Z,8.86
2023-02-19T14:46:42.081Z,8.84
2023-02-19T14:48:18.876Z,8.85
2023-02-19T14:50:01.907Z,8.87
2023-02-19T14:51:39.999Z,8.87
2023-02-19T14:53:14.527Z,8.91
2023-02-19T14:55:00.915Z,8.87
2023-02-19T14:56:34.513Z,8.87
2023-02-19T14:58:07.805Z,8.86
2023-02-19T14:59:39.750Z,8.91
2023-02-19T15:01:28.832Z,8.92
2023-02-19T15:03:02.685Z,8.95
2023-02-19T15:04:35.611Z,8.92
2023-02-19T15:06:11.979Z,8.98
2023-02-19T15:07:44.211Z,8.96
2023-02-19T15:09:16.518Z,8.95
2023-02-19T15:10:49.165Z,8.93
2023-02-19T15:12:25.379Z,8.98
2023-02-19T15:14:07.905Z,9.00
2023-02-19T15:15:43.169Z,9.00
2023-02-19T15:17:18.842Z,9.02
2023-02-19T15:18:51.949Z,9.06
2023-02-19T15:20:25.858Z,9.08
2023-02-19T15:21:57.899Z,9.10
2023-02-19T15:23:31.399Z,9.14
2023-02-19T15:25:04.992Z,9.22
2023-02-19T15:26:38.425Z,9.20
2023-02-19T15:28:25.709Z,9.18
2023-02-19T15:29:57.657Z,9.17
2023-02-19T15:31:29.839Z,9.16
2023-02-19T15:33:01.952Z,9.19
2023-02-19T15:34:33.988Z,9.17
2023-02-19T15:36:07.636Z,9.18
2023-02-19T15:37:40.157Z,9.21
2023-02-19T15:39:16.779Z,9.19
2023-02-19T15:40:49.504Z,9.24
2023-02-19T15:42:24.572Z,9.27
2023-02-19T15:44:00.863Z,9.25
2023-02-19T15:45:39.440Z,9.29
2023-02-19T15:47:35.096Z,9.36
2023-02-19T15:49:11.822Z,9.44
2023-02-19T15:50:47.689Z,9.61
2023-02-19T15:52:42.724Z,9.54
2023-02-19T15:54:27.148Z,9.25
2023-02-19T15:56:28.387Z,9.03
2023-02-19T15:58:00.384Z,8.65
2023-02-19T15:59:38.758Z,8.51
2023-02-19T16:01:13.861Z,8.41
2023-02-19T16:02:46.341Z,8.14
2023-02-19T16:04:19.174Z,7.90
2023-02-19T16:06:00.600Z,7.87
2023-02-19T16:07:32.584Z,7.78
2023-02-19T16:09:05.797Z,7.62
2023-02-19T16:10:38.552Z,7.67
2023-02-19T16:12:21.748Z,7.57
2023-02-19T17:44:56.980Z,6.22
2023-02-19T17:46:29.221Z,6.22
2023-02-19T17:48:01.435Z,6.25
2023-02-19T17:49:33.574Z,6.24
2023-02-19T17:51:05.907Z,6.22
2023-02-19T17:52:37.940Z,6.22
2023-02-19T17:54:10.091Z,6.21
2023-02-19T17:55:42.148Z,6.16
2023-02-19T17:57:14.286Z,6.16
2023-02-19T17:58:46.917Z,6.17
2023-02-19T18:00:22.573Z,6.15
2023-02-19T18:01:55.224Z,6.13
2023-02-19T18:03:27.370Z,6.13
2023-02-19T18:04:59.508Z,6.11
2023-02-19T18:06:31.788Z,6.13
2023-02-19T18:08:03.924Z,6.10
2023-02-19T18:09:36.054Z,6.11
2023-02-19T18:11:08.208Z,6.09
2023-02-19T18:12:40.682Z,6.09
2023-02-19T18:14:12.984Z,6.16
2023-02-19T18:15:45.139Z,6.18
2023-02-19T18:17:17.229Z,6.20
2023-02-19T18:18:49.311Z,6.15
2023-02-19T18:20:27.015Z,6.15
2023-02-19T18:21:59.163Z,6.07
2023-02-19T18:23:31.270Z,6.03
2023-02-19T18:25:03.389Z,6.00
2023-02-19T18:26:35.478Z,5.98
2023-02-19T18:28:07.756Z,5.99
2023-02-19T18:29:39.866Z,5.93
2023-02-19T18:31:12.360Z,5.95
2023-02-19T18:32:48.628Z,5.86
2023-02-19T18:34:20.780Z,5.86
2023-02-19T18:35:52.933Z,5.89
2023-02-19T18:37:26.955Z,5.88
2023-02-19T18:38:59.040Z,5.83
2023-02-19T18:40:31.215Z,5.82
2023-02-19T18:42:05.601Z,5.78
2023-02-19T18:43:37.784Z,5.80
2023-02-19T18:45:09.969Z,5.76
2023-02-19T18:46:42.274Z,5.67
2023-02-19T18:48:14.493Z,5.65
2023-02-19T18:49:54.833Z,5.62
2023-02-19T18:51:26.954Z,5.58
2023-02-19T18:52:59.168Z,5.52
2023-02-19T18:54:31.863Z,5.49
2023-02-19T18:56:05.459Z,5.45
2023-02-19T18:57:37.802Z,5.35
2023-02-19T18:59:10.573Z,5.40
2023-02-19T19:00:42.615Z,5.31
2023-02-19T19:02:15.739Z,5.39
2023-02-19T19:03:48.025Z,5.28
2023-02-19T19:05:23.891Z,5.26
2023-02-19T19:06:55.993Z,5.23
2023-02-19T19:08:30.391Z,5.16
2023-02-19T19:10:02.868Z,5.12
2023-02-19T19:11:35.742Z,5.09
2023-02-19T19:13:07.792Z,5.05
2023-02-19T19:14:39.960Z,5.03
2023-02-19T19:16:12.131Z,4.98
2023-02-19T19:17:44.303Z,4.91
2023-02-19T19:19:16.510Z,4.83
2023-02-19T19:20:48.772Z,4.76
2023-02-19T19:22:22.864Z,4.74
2023-02-19T19:23:55.023Z,4.67
2023-02-19T19:25:27.068Z,4.63
2023-02-19T19:27:02.205Z,4.59
2023-02-19T19:28:34.574Z,4.54
2023-02-19T19:30:07.615Z,4.50
2023-02-19T19:31:39.664Z,4.51
2023-02-19T19:33:14.044Z,4.45
2023-02-19T19:34:46.294Z,4.47
2023-02-19T19:36:21.631Z,4.41
2023-02-19T19:37:53.733Z,4.39
2023-02-19T19:39:25.947Z,4.32
2023-02-19T19:40:58.247Z,4.34
2023-02-19T19:42:30.367Z,4.30
2023-02-19T19:44:04.824Z,4.27
2023-02-19T19:45:37.100Z,4.32
2023-02-19T19:47:09.340Z,4.30
2023-02-19T19:48:41.528Z,4.25
2023-02-19T19:50:14.585Z,4.19
2023-02-19T19:51:47.099Z,4.17
2023-02-19T19:53:19.341Z,4.19
2023-02-19T19:54:54.160Z,4.19
2023-02-19T19:56:26.289Z,4.13
2023-02-19T19:58:00.420Z,4.13
2023-02-19T19:59:32.707Z,4.11
2023-02-19T20:01:06.109Z,4.13
2023-02-19T20:02:38.213Z,4.12
2023-02-19T20:04:10.432Z,4.10
2023-02-19T20:05:42.698Z,4.11
2023-02-19T20:07:15.368Z,4.16
2023-02-19T20:08:48.828Z,4.14
2023-02-19T20:10:23.546Z,4.09
2023-02-19T20:11:56.539Z,4.07
2023-02-19T20:13:32.730Z,4.05
2023-02-19T20:15:05.096Z,4.05
2023-02-19T20:16:37.237Z,4.04
2023-02-19T20:18:09.504Z,4.01
2023-02-19T20:19:41.983Z,4.04
2023-02-19T20:21:14.590Z,4.01
2023-02-19T20:22:46.909Z,4.06
2023-02-19T20:24:26.107Z,4.12
2023-02-19T20:25:58.354Z,4.08
2023-02-19T20:27:30.447Z,4.11
2023-02-19T20:29:04.351Z,4.11
2023-02-19T20:30:37.427Z,4.17
2023-02-19T20:32:09.653Z,4.14
2023-02-19T20:33:42.064Z,4.20
2023-02-19T20:35:16.518Z,4.15
2023-02-19T20:36:49.336Z,4.13
2023-02-19T20:38:21.465Z,4.34
2023-02-19T20:39:53.545Z,4.24
2023-02-19T20:41:27.129Z,4.21
2023-02-19T20:43:01.004Z,4.20
2023-02-19T20:44:34.165Z,4.24
2023-02-19T20:46:07.685Z,4.24
2023-02-19T20:47:40.450Z,4.26
2023-02-19T20:49:13.572Z,4.36
2023-02-19T20:50:45.771Z,4.26
2023-02-19T20:52:20.793Z,4.20
2023-02-19T20:53:53.022Z,4.25
2023-02-19T20:55:26.020Z,4.18
2023-02-19T20:57:00.575Z,4.15
2023-02-19T20:58:32.639Z,4.19
2023-02-19T21:00:06.543Z,4.28
2023-02-19T21:01:38.803Z,4.24
2023-02-19T21:03:11.764Z,4.16
2023-02-19T21:04:44.034Z,4.15
2023-02-19T21:06:16.226Z,4.11
2023-02-19T21:07:48.457Z,4.07
2023-02-19T21:09:22.254Z,4.13
2023-02-19T21:10:56.352Z,4.08
2023-02-19T21:12:28.542Z,4.04
2023-02-19T21:14:00.668Z,4.02
2023-02-19T21:15:34.127Z,4.14
2023-02-19T21:17:06.441Z,4.03
2023-02-19T21:18:38.675Z,4.18
2023-02-19T21:20:11.058Z,4.11
2023-02-19T21:21:43.355Z,4.16
2023-02-19T21:23:15.458Z,4.14
2023-02-19T21:24:52.074Z,4.13
2023-02-19T21:26:24.752Z,4.07
2023-02-19T21:27:57.067Z,4.02
2023-02-19T21:29:29.271Z,3.97
2023-02-19T21:31:01.602Z,3.96
2023-02-19T21:32:34.523Z,3.99
2023-02-19T21:34:07.431Z,4.04
2023-02-19T21:35:39.542Z,3.97
2023-02-19T21:37:11.769Z,3.99
2023-02-19T21:38:43.876Z,4.07
2023-02-19T21:40:16.170Z,4.11
2023-02-19T21:41:48.696Z,4.18
2023-02-19T21:43:20.871Z,4.29
2023-02-19T21:44:52.941Z,4.38
2023-02-19T21:46:25.676Z,4.41
2023-02-19T21:47:57.861Z,4.37
2023-02-19T21:49:30.246Z,4.46
2023-02-19T21:51:03.794Z,4.48
2023-02-19T21:52:36.015Z,4.49
2023-02-19T21:54:12.929Z,4.53
2023-02-19T21:55:58.040Z,4.56
2023-02-19T21:57:32.354Z,4.58
2023-02-19T21:59:04.646Z,4.59
2023-02-19T22:00:37.178Z,4.62
2023-02-19T22:02:09.920Z,4.64
2023-02-19T22:03:42.016Z,4.65
2023-02-19T22:05:14.336Z,4.72
2023-02-19T22:06:46.706Z,4.77
2023-02-19T22:08:19.068Z,4.80
2023-02-19T22:09:51.972Z,4.82
2023-02-19T22:11:24.308Z,4.79
2023-02-19T22:12:56.505Z,4.82
2023-02-19T22:14:28.602Z,4.88
2023-02-19T22:16:01.174Z,4.93
2023-02-19T22:17:33.366Z,4.90